Time;durP1;ratioP1;P1;durP2;ratioP2;P2;SDS_P1;SDS_P2;PMS_P1;PMS_P2;Temp;Humidity;BMP_temperature;BMP_pressure;BME280_temperature;BME280_humidity;BME280_pressure;Samples;Min_cycle;Max_cycle;Signal;HPM_P1;HPM_P2
2022/09/26 00:00:05;;;;;;;;;;;;;;;;;;5087104;28;19924;-78
2022/09/26 00:02:32;;;;;;;;;;;;;;;;;;5086591;28;20023;-76
2022/09/26 00:04:59;;;;;;;;;;;;;;;;;;5084915;28;19943;-77
2022/09/26 00:07:26;;;;;;;;;;;;;;;;;;5082000;28;19932;-77
2022/09/26 00:09:54;;;;;;;;;;;;;;;;;;5082652;28;19928;-77
2022/09/26 00:12:21;;;;;;;;;;;;;;;;;;5084160;28;19935;-77
2022/09/26 00:14:48;;;;;;;;;;;;;;;;;;5089640;28;19928;-77
2022/09/26 00:17:15;;;;;;;;;;;;;;;;;;5069992;28;19990;-77
2022/09/26 00:19:42;;;;;;;;;;;;;;;;;;5089366;28;19928;-77
2022/09/26 00:22:09;;;;;;;;;;;;;;;;;;5080279;28;19928;-77
2022/09/26 00:24:36;;;;;;;;;;;;;;;;;;5079645;28;20422;-77
2022/09/26 00:27:03;;;;;;;;;;;;;;;;;;5082065;28;19975;-76
2022/09/26 00:29:30;;;;;;;;;;;;;;;;;;5084954;28;19925;-77
2022/09/26 00:31:57;;;;;;;;;;;;;;;;;;5074878;28;20017;-77
2022/09/26 00:34:24;;;;;;;;;;;;;;;;;;5080230;28;19936;-77
2022/09/26 00:36:51;;;;;;;;;;;;;;;;;;5086859;28;19928;-76
2022/09/26 00:39:18;;;;;;;;;;;;;;;;;;5088988;28;19928;-77
2022/09/26 00:41:45;;;;;;;;;;;;;;;;;;5081137;28;19925;-77
2022/09/26 00:44:12;;;;;;;;;;;;;;;;;;5085219;28;20357;-78
2022/09/26 00:46:39;;;;;;;;;;;;;;;;;;5084857;28;19932;-78
2022/09/26 00:49:06;;;;;;;;;;;;;;;;;;5089892;28;19924;-77
2022/09/26 00:51:33;;;;;;;;;;;;;;;;;;5087203;28;19928;-78
2022/09/26 00:54:00;;;;;;;;;;;;;;;;;;5083775;28;19931;-78
2022/09/26 00:56:29;;;;;;;;;;;;;;;;;;5079409;28;19928;-78
2022/09/26 00:58:56;;;;;;;;;;;;;;;;;;5081924;28;19974;-77
2022/09/26 01:01:23;;;;;;;;;;;;;;;;;;5083286;28;20401;-78
2022/09/26 01:03:50;;;;;;;;;;;;;;;;;;5079890;28;19928;-77
2022/09/26 01:06:17;;;;;;;;;;;;;;;;;;5081411;28;20519;-75
2022/09/26 01:08:44;;;;;;;;;;;;;;;;;;5081122;28;19939;-76
2022/09/26 01:11:14;;;;;;;;;;;;;;;;;;5081527;28;20379;-75
2022/09/26 01:13:41;;;;;;;;;;;;;;;;;;5074706;28;19931;-75
2022/09/26 01:16:08;;;;;;;;;;;;;;;;;;5080269;28;20400;-75
2022/09/26 01:18:35;;;;;;;;;;;;;;;;;;5075760;28;19994;-75
2022/09/26 01:21:02;;;;;;;;;;;;;;;;;;5083314;28;20572;-75
2022/09/26 01:23:29;;;;;;;;;;;;;;;;;;5078333;28;19928;-74
2022/09/26 01:25:56;;;;;;;;;;;;;;;;;;5078126;28;20452;-73
2022/09/26 01:28:23;;;;;;;;;;;;;;;;;;5085089;28;19928;-74
2022/09/26 01:30:50;;;;;;;;;;;;;;;;;;5084281;28;19928;-74
2022/09/26 01:33:17;;;;;;;;;;;;;;;;;;5082400;28;19935;-74
2022/09/26 01:35:44;;;;;;;;;;;;;;;;;;5087866;28;19927;-73
2022/09/26 01:38:11;;;;;;;;;;;;;;;;;;5081184;28;19931;-74
2022/09/26 01:40:38;;;;;;;;;;;;;;;;;;5089005;28;19932;-74
2022/09/26 01:43:05;;;;;;;;;;;;;;;;;;5079266;28;20438;-75
2022/09/26 01:45:32;;;;;;;;;;;;;;;;;;5083359;28;19932;-73
2022/09/26 01:47:59;;;;;;;;;;;;;;;;;;5084085;28;19928;-72
2022/09/26 01:50:26;;;;;;;;;;;;;;;;;;5082543;28;19931;-74
2022/09/26 01:52:53;;;;;;;;;;;;;;;;;;5083122;28;19939;-74
2022/09/26 01:55:20;;;;;;;;;;;;;;;;;;5082761;28;19927;-76
2022/09/26 01:57:47;;;;;;;;;;;;;;;;;;5081275;28;19932;-75
2022/09/26 02:00:14;;;;;;;;;;;;;;;;;;5083210;28;19932;-76
2022/09/26 02:02:41;;;;;;;;;;;;;;;;;;5079603;28;19925;-74
2022/09/26 02:05:08;;;;;;;;;;;;;;;;;;5081554;28;19924;-75
2022/09/26 02:07:35;;;;;;;;;;;;;;;;;;5074758;28;19931;-75
2022/09/26 02:10:03;;;;;;;;;;;;;;;;;;5080074;28;20446;-75
2022/09/26 02:12:31;;;;;;;;;;;;;;;;;;5079044;28;19929;-75
2022/09/26 02:14:58;;;;;;;;;;;;;;;;;;5082654;28;19932;-75
2022/09/26 02:17:25;;;;;;;;;;;;;;;;;;5082266;28;19924;-75
2022/09/26 02:19:54;;;;;;;;;;;;;;;;;;5078433;28;20504;-75
2022/09/26 02:22:21;;;;;;;;;;;;;;;;;;5081336;28;19932;-75
2022/09/26 02:24:48;;;;;;;;;;;;;;;;;;5077272;28;20397;-75
2022/09/26 02:27:15;;;;;;;;;;;;;;;;;;5082963;28;19928;-75
2022/09/26 02:29:42;;;;;;;;;;;;;;;;;;5083600;28;19933;-75
2022/09/26 02:32:11;;;;;;;;;;;;;;;;;;5085014;28;19943;-75
2022/09/26 02:34:38;;;;;;;;;;;;;;;;;;5085489;28;19975;-75
2022/09/26 02:37:05;;;;;;;;;;;;;;;;;;5084814;28;20399;-75
2022/09/26 02:39:33;;;;;;;;;;;;;;;;;;5085060;28;19936;-75
2022/09/26 02:42:00;;;;;;;;;;;;;;;;;;5083254;28;20436;-76
2022/09/26 02:44:27;;;;;;;;;;;;;;;;;;5083790;28;19928;-76
2022/09/26 02:46:54;;;;;;;;;;;;;;;;;;5088702;28;19935;-75
2022/09/26 02:49:21;;;;;;;;;;;;;;;;;;5083742;28;19931;-75
2022/09/26 02:51:49;;;;;;;;;;;;;;;;;;5084730;28;19971;-76
2022/09/26 02:54:16;;;;;;;;;;;;;;;;;;5082913;28;19970;-75
2022/09/26 02:56:44;;;;;;;;;;;;;;;;;;5084788;28;19932;-75
2022/09/26 02:59:11;;;;;;;;;;;;;;;;;;5081468;28;20294;-75
2022/09/26 03:01:40;;;;;;;;;;;;;;;;;;5083307;28;19931;-76
2022/09/26 03:04:07;;;;;;;;;;;;;;;;;;5079863;28;20642;-76
2022/09/26 03:06:34;;;;;;;;;;;;;;;;;;5081623;28;19928;-77
2022/09/26 03:09:02;;;;;;;;;;;;;;;;;;5088708;28;19981;-76
2022/09/26 03:11:29;;;;;;;;;;;;;;;;;;5081101;28;20598;-76
2022/09/26 03:13:56;;;;;;;;;;;;;;;;;;5094830;28;19924;-76
2022/09/26 03:16:23;;;;;;;;;;;;;;;;;;5082036;28;19939;-77
2022/09/26 03:18:50;;;;;;;;;;;;;;;;;;5089343;28;19935;-75
2022/09/26 03:21:17;;;;;;;;;;;;;;;;;;5084422;28;20011;-76
2022/09/26 03:23:44;;;;;;;;;;;;;;;;;;5080356;28;19929;-75
2022/09/26 03:26:11;;;;;;;;;;;;;;;;;;5086304;28;19927;-75
2022/09/26 03:28:38;;;;;;;;;;;;;;;;;;5078455;28;20668;-76
2022/09/26 03:31:06;;;;;;;;;;;;;;;;;;5086815;28;19932;-75
2022/09/26 03:33:33;;;;;;;;;;;;;;;;;;5085208;28;19932;-75
2022/09/26 03:36:00;;;;;;;;;;;;;;;;;;5088702;28;19935;-77
2022/09/26 03:38:27;;;;;;;;;;;;;;;;;;5082069;28;19924;-77
2022/09/26 03:40:54;;;;;;;;;;;;;;;;;;5087505;28;20006;-76
2022/09/26 03:43:23;;;;;;;;;;;;;;;;;;5080828;28;19932;-78
2022/09/26 03:45:50;;;;;;;;;;;;;;;;;;5081347;28;19928;-77
2022/09/26 03:48:17;;;;;;;;;;;;;;;;;;5085605;28;19975;-77
2022/09/26 03:50:44;;;;;;;;;;;;;;;;;;5077927;28;19935;-77
2022/09/26 03:53:12;;;;;;;;;;;;;;;;;;5079580;28;20003;-76
2022/09/26 03:55:39;;;;;;;;;;;;;;;;;;5081716;28;19932;-76
2022/09/26 03:58:06;;;;;;;;;;;;;;;;;;5093657;28;20459;-77
2022/09/26 04:00:33;;;;;;;;;;;;;;;;;;5073476;28;20098;-76
2022/09/26 04:03:01;;;;;;;;;;;;;;;;;;5082338;28;20011;-77
2022/09/26 04:05:29;;;;;;;;;;;;;;;;;;5085675;28;20409;-76
2022/09/26 04:07:56;;;;;;;;;;;;;;;;;;5078800;28;19942;-76
2022/09/26 04:10:23;;;;;;;;;;;;;;;;;;5080083;28;20010;-74
2022/09/26 04:12:50;;;;;;;;;;;;;;;;;;5079386;28;19924;-75
2022/09/26 04:15:17;;;;;;;;;;;;;;;;;;5078749;28;19924;-74
2022/09/26 04:17:45;;;;;;;;;;;;;;;;;;5073738;28;19933;-74
2022/09/26 04:20:12;;;;;;;;;;;;;;;;;;5074386;28;19985;-74
2022/09/26 04:22:41;;;;;;;;;;;;;;;;;;5077124;28;19962;-74
2022/09/26 04:25:09;;;;;;;;;;;;;;;;;;5075900;28;19971;-74
2022/09/26 04:27:36;;;;;;;;;;;;;;;;;;5072488;28;20295;-74
2022/09/26 04:30:03;;;;;;;;;;;;;;;;;;5076816;28;19931;-74
2022/09/26 04:32:30;;;;;;;;;;;;;;;;;;5071933;28;20507;-75
2022/09/26 04:34:57;;;;;;;;;;;;;;;;;;5087317;28;19924;-74
2022/09/26 04:37:24;;;;;;;;;;;;;;;;;;5084873;28;19936;-74
2022/09/26 04:39:51;;;;;;;;;;;;;;;;;;5084099;28;19936;-73
2022/09/26 04:42:18;;;;;;;;;;;;;;;;;;5076709;28;19935;-74
2022/09/26 04:44:47;;;;;;;;;;;;;;;;;;5076578;28;19935;-74
2022/09/26 04:47:14;;;;;;;;;;;;;;;;;;5085493;28;19977;-74
2022/09/26 04:49:41;;;;;;;;;;;;;;;;;;5075833;28;19929;-74
2022/09/26 04:52:08;;;;;;;;;;;;;;;;;;5084425;28;19934;-73
2022/09/26 04:54:37;;;;;;;;;;;;;;;;;;5083105;28;20019;-73
2022/09/26 04:57:04;;;;;;;;;;;;;;;;;;5082543;28;19979;-74
2022/09/26 04:59:31;;;;;;;;;;;;;;;;;;5088673;28;19959;-73
2022/09/26 05:01:58;;;;;;;;;;;;;;;;;;5089421;28;20470;-74
2022/09/26 05:04:25;;;;;;;;;;;;;;;;;;5090871;28;19932;-74
2022/09/26 05:06:56;;;;;;;;;;;;;;;;;;5096913;28;19924;-74
2022/09/26 05:09:24;;;;;;;;;;;;;;;;;;5090863;28;20433;-74
2022/09/26 05:11:51;;;;;;;;;;;;;;;;;;5088330;28;20409;-74
2022/09/26 05:14:18;;;;;;;;;;;;;;;;;;5077896;28;20002;-74
2022/09/26 05:16:45;;;;;;;;;;;;;;;;;;5086618;28;19932;-74
2022/09/26 05:19:12;;;;;;;;;;;;;;;;;;5087385;28;19924;-74
2022/09/26 05:21:40;;;;;;;;;;;;;;;;;;5082893;28;19932;-74
2022/09/26 05:26:51;;;;;;;;;;;;;;;;;;5084691;28;19928;-74
2022/09/26 05:29:19;;;;;;;;;;;;;;;;;;5087201;28;19928;-74
2022/09/26 05:31:46;;;;;;;;;;;;;;;;;;5088307;28;20023;-73
2022/09/26 05:34:14;;;;;;;;;;;;;;;;;;5085067;28;19931;-74
2022/09/26 05:36:42;;;;;;;;;;;;;;;;;;5088182;28;19930;-74
2022/09/26 05:40:55;;;;;;;;;;;;;;;;;;5088352;28;19935;-74
2022/09/26 05:41:55;;;;;;;;;;;;;;;;;;5090760;28;20023;-74
2022/09/26 05:44:22;;;;;;;;;;;;;;;;;;5085931;28;19953;-75
2022/09/26 05:46:50;;;;;;;;;;;;;;;;;;5087069;28;20399;-74
2022/09/26 05:49:17;;;;;;;;;;;;;;;;;;5087705;28;19982;-76
2022/09/26 05:51:44;;;;;;;;;;;;;;;;;;5088717;28;19935;-75
2022/09/26 05:54:11;;;;;;;;;;;;;;;;;;5086771;28;19935;-75
2022/09/26 05:56:38;;;;;;;;;;;;;;;;;;5084452;28;20270;-74
2022/09/26 05:59:05;;;;;;;;;;;;;;;;;;5088658;28;20079;-75
2022/09/26 06:01:32;;;;;;;;;;;;;;;;;;5086952;28;19932;-75
2022/09/26 06:03:59;;;;;;;;;;;;;;;;;;5082759;28;19932;-75
2022/09/26 06:06:26;;;;;;;;;;;;;;;;;;5083294;28;19928;-74
2022/09/26 06:08:53;;;;;;;;;;;;;;;;;;5080461;28;19928;-75
2022/09/26 06:11:23;;;;;;;;;;;;;;;;;;5091349;28;20423;-75
2022/09/26 06:13:50;;;;;;;;;;;;;;;;;;5083784;28;19928;-76
2022/09/26 06:16:18;;;;;;;;;;;;;;;;;;5085686;28;20021;-76
2022/09/26 06:18:45;;;;;;;;;;;;;;;;;;5092797;28;19932;-75
2022/09/26 06:21:12;;;;;;;;;;;;;;;;;;5086030;28;20336;-75
2022/09/26 06:23:39;;;;;;;;;;;;;;;;;;5080137;28;19932;-75
2022/09/26 06:26:07;;;;;;;;;;;;;;;;;;5086812;28;20011;-75
2022/09/26 06:28:34;;;;;;;;;;;;;;;;;;5085779;28;19932;-76
2022/09/26 06:31:01;;;;;;;;;;;;;;;;;;5084021;28;19928;-76
2022/09/26 06:33:28;;;;;;;;;;;;;;;;;;5089107;28;19928;-75
2022/09/26 06:35:55;;;;;;;;;;;;;;;;;;5079427;28;19929;-77
2022/09/26 06:38:22;;;;;;;;;;;;;;;;;;5086502;28;19969;-77
2022/09/26 06:40:49;;;;;;;;;;;;;;;;;;5089029;28;19928;-76
2022/09/26 06:43:16;;;;;;;;;;;;;;;;;;5080521;28;19936;-75
2022/09/26 06:45:44;;;;;;;;;;;;;;;;;;5088862;28;19925;-76
2022/09/26 06:48:12;;;;;;;;;;;;;;;;;;5085088;28;19942;-78
2022/09/26 06:50:39;;;;;;;;;;;;;;;;;;5078601;28;20397;-76
2022/09/26 06:53:06;;;;;;;;;;;;;;;;;;5081821;28;20473;-79
2022/09/26 06:55:33;;;;;;;;;;;;;;;;;;5087726;28;19928;-77
2022/09/26 06:58:00;;;;;;;;;;;;;;;;;;5082591;28;20446;-78
2022/09/26 07:00:28;;;;;;;;;;;;;;;;;;5087327;28;19936;-77
2022/09/26 07:02:55;;;;;;;;;;;;;;;;;;5082037;28;19944;-76
2022/09/26 07:05:22;;;;;;;;;;;;;;;;;;5079126;28;20363;-76
2022/09/26 07:07:49;;;;;;;;;;;;;;;;;;5080582;28;19935;-76
2022/09/26 07:10:17;;;;;;;;;;;;;;;;;;5089826;28;20015;-78
2022/09/26 07:12:45;;;;;;;;;;;;;;;;;;5090415;28;20319;-79
2022/09/26 07:15:12;;;;;;;;;;;;;;;;;;5084604;28;19924;-76
2022/09/26 07:17:39;;;;;;;;;;;;;;;;;;5083983;28;19924;-77
2022/09/26 07:20:06;;;;;;;;;;;;;;;;;;5084635;28;19928;-78
2022/09/26 07:22:33;;;;;;;;;;;;;;;;;;5083372;28;19981;-79
2022/09/26 07:25:00;;;;;;;;;;;;;;;;;;5084968;28;19932;-77
2022/09/26 07:27:27;;;;;;;;;;;;;;;;;;5086063;28;19984;-80
2022/09/26 07:29:55;;;;;;;;;;;;;;;;;;5082249;28;19928;-77
2022/09/26 07:32:22;;;;;;;;;;;;;;;;;;5085616;28;20010;-79
2022/09/26 07:34:49;;;;;;;;;;;;;;;;;;5086558;28;19941;-76
2022/09/26 07:37:16;;;;;;;;;;;;;;;;;;5084281;28;19928;-77
2022/09/26 07:39:43;;;;;;;;;;;;;;;;;;5086830;28;19969;-78
2022/09/26 07:42:10;;;;;;;;;;;;;;;;;;5085575;28;20012;-76
2022/09/26 07:44:39;;;;;;;;;;;;;;;;;;5086617;28;19967;-77
2022/09/26 07:52:36;;;;;;;;;;;;;;;;;;5078703;28;19924;-79
2022/09/26 07:55:03;;;;;;;;;;;;;;;;;;5082250;28;20302;-79
2022/09/26 07:57:34;;;;;;;;;;;;;;;;;;5083324;28;19928;-77
2022/09/26 08:00:01;;;;;;;;;;;;;;;;;;5085645;28;19957;-77
2022/09/26 08:02:32;;;;;;;;;;;;;;;;;;5082872;28;19950;-80
2022/09/26 08:05:02;;;;;;;;;;;;;;;;;;5089311;28;19924;-77
2022/09/26 08:07:29;;;;;;;;;;;;;;;;;;5082607;28;20487;-77
2022/09/26 08:09:56;;;;;;;;;;;;;;;;;;5083119;28;19924;-76
2022/09/26 08:12:23;;;;;;;;;;;;;;;;;;5078398;28;19931;-78
2022/09/26 08:14:51;;;;;;;;;;;;;;;;;;5084638;28;20025;-77
2022/09/26 08:17:18;;;;;;;;;;;;;;;;;;5079981;28;19932;-78
2022/09/26 08:19:45;;;;;;;;;;;;;;;;;;5082845;28;19953;-79
2022/09/26 08:22:13;;;;;;;;;;;;;;;;;;5075338;28;19951;-79
2022/09/26 08:24:42;;;;;;;;;;;;;;;;;;5079789;28;19943;-81
2022/09/26 08:27:09;;;;;;;;;;;;;;;;;;5079254;28;19982;-76
2022/09/26 08:29:36;;;;;;;;;;;;;;;;;;5084173;28;20521;-76
2022/09/26 08:32:03;;;;;;;;;;;;;;;;;;5079218;28;19931;-74
2022/09/26 08:34:30;;;;;;;;;;;;;;;;;;5080369;28;20355;-72
2022/09/26 08:36:58;;;;;;;;;;;;;;;;;;5080906;28;19973;-74
2022/09/26 08:39:25;;;;;;;;;;;;;;;;;;5088957;28;19936;-72
2022/09/26 08:41:52;;;;;;;;;;;;;;;;;;5085114;28;19928;-74
2022/09/26 08:44:21;;;;;;;;;;;;;;;;;;5083198;28;19924;-72
2022/09/26 08:46:50;;;;;;;;;;;;;;;;;;5082872;28;19954;-71
2022/09/26 08:49:21;;;;;;;;;;;;;;;;;;5087168;28;20441;-71
2022/09/26 08:51:48;;;;;;;;;;;;;;;;;;5087349;28;19923;-71
2022/09/26 08:54:15;;;;;;;;;;;;;;;;;;5087053;28;20400;-73
2022/09/26 08:56:42;;;;;;;;;;;;;;;;;;5082822;28;19931;-73
2022/09/26 08:59:09;;;;;;;;;;;;;;;;;;5086424;28;19979;-73
2022/09/26 09:01:38;;;;;;;;;;;;;;;;;;5085016;28;19936;-73
2022/09/26 09:04:05;;;;;;;;;;;;;;;;;;5096334;28;19923;-74
2022/09/26 09:06:32;;;;;;;;;;;;;;;;;;5087285;28;20050;-74
2022/09/26 09:08:59;;;;;;;;;;;;;;;;;;5091747;28;19928;-75
2022/09/26 09:11:26;;;;;;;;;;;;;;;;;;5081777;28;19928;-76
2022/09/26 09:13:53;;;;;;;;;;;;;;;;;;5092354;28;20464;-76
2022/09/26 09:16:20;;;;;;;;;;;;;;;;;;5081445;28;19935;-77
2022/09/26 09:18:47;;;;;;;;;;;;;;;;;;5088014;28;19932;-76
2022/09/26 09:21:14;;;;;;;;;;;;;;;;;;5089037;28;19931;-77
2022/09/26 09:23:41;;;;;;;;;;;;;;;;;;5081266;28;19943;-76
2022/09/26 09:26:08;;;;;;;;;;;;;;;;;;5080653;28;19924;-76
2022/09/26 09:28:35;;;;;;;;;;;;;;;;;;5087974;28;19939;-74
2022/09/26 09:31:02;;;;;;;;;;;;;;;;;;5082916;28;19928;-73
2022/09/26 09:33:29;;;;;;;;;;;;;;;;;;5091298;28;19932;-73
2022/09/26 09:35:56;;;;;;;;;;;;;;;;;;5086627;28;19924;-74
2022/09/26 09:38:23;;;;;;;;;;;;;;;;;;5086770;28;19935;-74
2022/09/26 09:40:50;;;;;;;;;;;;;;;;;;5081980;28;19928;-74
2022/09/26 09:43:17;;;;;;;;;;;;;;;;;;5086118;28;19936;-75
2022/09/26 09:45:44;;;;;;;;;;;;;;;;;;5087733;28;19925;-75
2022/09/26 09:48:12;;;;;;;;;;;;;;;;;;5084337;28;20286;-75
2022/09/26 09:50:39;;;;;;;;;;;;;;;;;;5092045;28;19989;-75
2022/09/26 09:53:06;;;;;;;;;;;;;;;;;;5079972;28;20589;-75
2022/09/26 09:55:33;;;;;;;;;;;;;;;;;;5084169;28;19925;-75
2022/09/26 09:58:00;;;;;;;;;;;;;;;;;;5083528;28;20299;-75
2022/09/26 10:00:28;;;;;;;;;;;;;;;;;;5086774;28;19967;-74
2022/09/26 10:02:58;;;;;;;;;;;;;;;;;;5082170;28;20581;-72
2022/09/26 10:05:25;;;;;;;;;;;;;;;;;;5083003;28;19935;-72
2022/09/26 10:07:56;;;;;;;;;;;;;;;;;;5087628;28;19932;-71
2022/09/26 10:10:23;;;;;;;;;;;;;;;;;;5096867;28;19928;-71
2022/09/26 10:12:51;;;;;;;;;;;;;;;;;;5087047;28;19947;-72
2022/09/26 10:15:19;;;;;;;;;;;;;;;;;;5080244;28;20006;-73
2022/09/26 10:17:47;;;;;;;;;;;;;;;;;;5082181;28;19935;-73
2022/09/26 10:20:16;;;;;;;;;;;;;;;;;;5083750;28;20065;-72
2022/09/26 10:22:44;;;;;;;;;;;;;;;;;;5076471;28;19925;-73
2022/09/26 10:25:11;;;;;;;;;;;;;;;;;;5074633;28;19938;-73
2022/09/26 10:27:38;;;;;;;;;;;;;;;;;;5078415;28;19931;-72
2022/09/26 10:30:06;;;;;;;;;;;;;;;;;;5075234;28;19931;-71
2022/09/26 10:32:33;;;;;;;;;;;;;;;;;;5077609;28;19978;-72
2022/09/26 10:35:00;;;;;;;;;;;;;;;;;;5076820;28;20290;-72
2022/09/26 10:37:27;;;;;;;;;;;;;;;;;;5086339;28;19931;-72
2022/09/26 10:42:39;;;;;;;;;;;;;;;;;;5088729;28;19973;-73
2022/09/26 10:45:07;;;;;;;;;;;;;;;;;;5087081;28;19939;-73
2022/09/26 10:47:34;;;;;;;;;;;;;;;;;;5082878;28;20367;-74
2022/09/26 10:50:01;;;;;;;;;;;;;;;;;;5082539;28;19935;-74
2022/09/26 10:52:28;;;;;;;;;;;;;;;;;;5081307;28;20342;-75
2022/09/26 10:54:56;;;;;;;;;;;;;;;;;;5087428;28;19983;-72
2022/09/26 10:57:23;;;;;;;;;;;;;;;;;;5084006;28;19974;-73
2022/09/26 10:59:51;;;;;;;;;;;;;;;;;;5084855;28;19924;-72
2022/09/26 11:02:18;;;;;;;;;;;;;;;;;;5085984;28;20378;-73
2022/09/26 11:07:33;;;;;;;;;;;;;;;;;;5089414;28;19928;-74
2022/09/26 11:10:00;;;;;;;;;;;;;;;;;;5088283;28;19924;-75
2022/09/26 11:12:27;;;;;;;;;;;;;;;;;;5084340;28;19928;-75
2022/09/26 11:14:56;;;;;;;;;;;;;;;;;;5084338;28;19977;-75
2022/09/26 11:17:23;;;;;;;;;;;;;;;;;;5088576;28;19935;-75
2022/09/26 11:19:50;;;;;;;;;;;;;;;;;;5085743;28;19928;-74
2022/09/26 11:22:17;;;;;;;;;;;;;;;;;;5088274;28;20378;-74
2022/09/26 11:24:44;;;;;;;;;;;;;;;;;;5088590;28;19935;-74
2022/09/26 11:27:11;;;;;;;;;;;;;;;;;;5087225;28;19938;-75
2022/09/26 11:29:38;;;;;;;;;;;;;;;;;;5084646;28;19975;-75
2022/09/26 11:32:05;;;;;;;;;;;;;;;;;;5081900;28;19932;-73
2022/09/26 11:34:32;;;;;;;;;;;;;;;;;;5083789;28;19934;-72
2022/09/26 11:37:02;;;;;;;;;;;;;;;;;;5086654;28;20397;-73
2022/09/26 11:39:30;;;;;;;;;;;;;;;;;;5082239;28;19924;-73
2022/09/26 11:41:57;;;;;;;;;;;;;;;;;;5080438;28;19934;-75
2022/09/26 11:44:24;;;;;;;;;;;;;;;;;;5081169;28;20320;-75
2022/09/26 11:46:53;;;;;;;;;;;;;;;;;;5082030;28;20334;-74
2022/09/26 11:49:20;;;;;;;;;;;;;;;;;;5081963;28;19936;-75
2022/09/26 11:51:48;;;;;;;;;;;;;;;;;;5086395;28;19928;-75
2022/09/26 11:54:15;;;;;;;;;;;;;;;;;;5083747;28;20007;-75
2022/09/26 11:56:42;;;;;;;;;;;;;;;;;;5081600;28;19966;-76
2022/09/26 11:59:09;;;;;;;;;;;;;;;;;;5085251;28;20375;-76
2022/09/26 12:01:37;;;;;;;;;;;;;;;;;;5088849;28;19927;-76
2022/09/26 12:04:06;;;;;;;;;;;;;;;;;;5092297;28;19974;-75
2022/09/26 12:06:33;;;;;;;;;;;;;;;;;;5099351;28;19927;-76
2022/09/26 12:09:00;;;;;;;;;;;;;;;;;;5100226;28;20282;-77
2022/09/26 12:11:27;;;;;;;;;;;;;;;;;;5091174;28;19928;-76
2022/09/26 12:13:55;;;;;;;;;;;;;;;;;;5089670;28;19944;-76
2022/09/26 12:16:22;;;;;;;;;;;;;;;;;;5089481;28;19928;-76
2022/09/26 12:18:49;;;;;;;;;;;;;;;;;;5093281;28;19924;-77
2022/09/26 12:21:16;;;;;;;;;;;;;;;;;;5082832;28;19924;-76
2022/09/26 12:23:43;;;;;;;;;;;;;;;;;;5083937;28;20376;-77
2022/09/26 12:26:10;;;;;;;;;;;;;;;;;;5093509;28;19932;-73
2022/09/26 12:28:37;;;;;;;;;;;;;;;;;;5089005;28;19958;-72
2022/09/26 12:31:06;;;;;;;;;;;;;;;;;;5086497;28;19924;-73
2022/09/26 12:33:33;;;;;;;;;;;;;;;;;;5077873;28;20004;-74
2022/09/26 12:36:01;;;;;;;;;;;;;;;;;;5085172;28;19975;-74
2022/09/26 12:38:31;;;;;;;;;;;;;;;;;;5083677;28;19990;-73
2022/09/26 12:40:58;;;;;;;;;;;;;;;;;;5080073;28;19935;-72
2022/09/26 12:43:25;;;;;;;;;;;;;;;;;;5081124;28;20394;-73
2022/09/26 12:45:52;;;;;;;;;;;;;;;;;;5072710;28;19935;-73
2022/09/26 12:48:19;;;;;;;;;;;;;;;;;;5072080;28;19924;-75
2022/09/26 12:50:46;;;;;;;;;;;;;;;;;;5068484;28;20585;-76
2022/09/26 12:53:14;;;;;;;;;;;;;;;;;;5071453;28;19929;-75
2022/09/26 12:55:41;;;;;;;;;;;;;;;;;;5070820;28;19929;-76
2022/09/26 12:58:08;;;;;;;;;;;;;;;;;;5072738;28;19928;-76
2022/09/26 13:00:37;;;;;;;;;;;;;;;;;;5075849;28;19925;-76
2022/09/26 13:03:04;;;;;;;;;;;;;;;;;;5076382;28;19931;-76
2022/09/26 13:05:32;;;;;;;;;;;;;;;;;;5074374;28;20510;-76
2022/09/26 13:08:01;;;;;;;;;;;;;;;;;;5079699;28;19939;-76
2022/09/26 13:10:28;;;;;;;;;;;;;;;;;;5074173;28;19928;-77
2022/09/26 13:12:55;;;;;;;;;;;;;;;;;;5080924;28;19924;-78
2022/09/26 13:15:22;;;;;;;;;;;;;;;;;;5073124;28;19935;-76
2022/09/26 13:17:49;;;;;;;;;;;;;;;;;;5073478;28;19928;-76
2022/09/26 13:20:16;;;;;;;;;;;;;;;;;;5074870;28;20415;-76
2022/09/26 13:22:43;;;;;;;;;;;;;;;;;;5072549;28;19931;-77
2022/09/26 13:25:10;;;;;;;;;;;;;;;;;;5074707;28;19962;-77
2022/09/26 13:27:37;;;;;;;;;;;;;;;;;;5076732;28;19932;-78
2022/09/26 13:30:05;;;;;;;;;;;;;;;;;;5079560;28;20443;-77
2022/09/26 13:32:33;;;;;;;;;;;;;;;;;;5077430;28;19928;-78
2022/09/26 13:35:00;;;;;;;;;;;;;;;;;;5073864;28;20508;-77
2022/09/26 13:37:28;;;;;;;;;;;;;;;;;;5073687;28;19965;-78
2022/09/26 13:39:55;;;;;;;;;;;;;;;;;;5078892;28;20396;-78
2022/09/26 13:42:22;;;;;;;;;;;;;;;;;;5073786;28;19982;-79
2022/09/26 13:44:50;;;;;;;;;;;;;;;;;;5082543;28;19932;-79
2022/09/26 13:47:18;;;;;;;;;;;;;;;;;;5085716;28;19929;-79
2022/09/26 13:49:49;;;;;;;;;;;;;;;;;;5088697;28;19935;-78
2022/09/26 13:52:16;;;;;;;;;;;;;;;;;;5081906;28;20037;-77
2022/09/26 13:54:43;;;;;;;;;;;;;;;;;;5080955;28;19928;-78
2022/09/26 13:57:10;;;;;;;;;;;;;;;;;;5079785;28;19940;-79
2022/09/26 13:59:38;;;;;;;;;;;;;;;;;;5077086;28;19934;-78
2022/09/26 14:02:05;;;;;;;;;;;;;;;;;;5085652;28;20013;-78
2022/09/26 14:04:32;;;;;;;;;;;;;;;;;;5082026;28;20499;-77
2022/09/26 14:06:59;;;;;;;;;;;;;;;;;;5080825;28;20375;-78
2022/09/26 14:09:28;;;;;;;;;;;;;;;;;;5079872;28;19947;-77
2022/09/26 14:11:56;;;;;;;;;;;;;;;;;;5082688;28;19927;-76
2022/09/26 14:14:23;;;;;;;;;;;;;;;;;;5083573;28;19935;-77
2022/09/26 14:16:50;;;;;;;;;;;;;;;;;;5083173;28;19929;-77
2022/09/26 14:19:17;;;;;;;;;;;;;;;;;;5087262;28;19924;-77
2022/09/26 14:21:45;;;;;;;;;;;;;;;;;;5092838;28;20003;-77
2022/09/26 14:24:12;;;;;;;;;;;;;;;;;;5081185;28;20034;-76
2022/09/26 14:26:39;;;;;;;;;;;;;;;;;;5086719;28;19932;-76
2022/09/26 14:29:06;;;;;;;;;;;;;;;;;;5079338;28;19983;-77
2022/09/26 14:31:33;;;;;;;;;;;;;;;;;;5083975;28;19928;-78
2022/09/26 14:34:00;;;;;;;;;;;;;;;;;;5086039;28;19981;-78
2022/09/26 14:36:27;;;;;;;;;;;;;;;;;;5080043;28;20317;-76
2022/09/26 14:38:54;;;;;;;;;;;;;;;;;;5086154;28;19950;-77
2022/09/26 14:41:21;;;;;;;;;;;;;;;;;;5086473;28;20011;-77
2022/09/26 14:43:49;;;;;;;;;;;;;;;;;;5091332;28;19934;-78
2022/09/26 14:46:16;;;;;;;;;;;;;;;;;;5079118;28;19931;-74
2022/09/26 14:48:43;;;;;;;;;;;;;;;;;;5079925;28;19935;-76
2022/09/26 14:51:10;;;;;;;;;;;;;;;;;;5077749;28;19990;-76
2022/09/26 14:53:38;;;;;;;;;;;;;;;;;;5087080;28;19998;-76
2022/09/26 14:56:05;;;;;;;;;;;;;;;;;;5084744;28;19924;-76
2022/09/26 14:58:32;;;;;;;;;;;;;;;;;;5089799;28;19977;-75
2022/09/26 15:01:01;;;;;;;;;;;;;;;;;;5087668;28;19932;-75
2022/09/26 15:03:28;;;;;;;;;;;;;;;;;;5083718;28;19928;-76
2022/09/26 15:05:55;;;;;;;;;;;;;;;;;;5086178;28;19947;-76
2022/09/26 15:08:22;;;;;;;;;;;;;;;;;;5083673;28;20569;-76
2022/09/26 15:10:49;;;;;;;;;;;;;;;;;;5081882;28;19928;-76
2022/09/26 15:13:16;;;;;;;;;;;;;;;;;;5084306;28;20413;-75
2022/09/26 15:15:43;;;;;;;;;;;;;;;;;;5076421;28;20401;-76
2022/09/26 15:18:10;;;;;;;;;;;;;;;;;;5084053;28;19989;-77
2022/09/26 15:20:37;;;;;;;;;;;;;;;;;;5082858;28;20697;-76
2022/09/26 15:23:04;;;;;;;;;;;;;;;;;;5081895;28;19932;-76
2022/09/26 15:25:31;;;;;;;;;;;;;;;;;;5078158;28;19940;-77
2022/09/26 15:27:58;;;;;;;;;;;;;;;;;;5082864;28;20403;-76
2022/09/26 15:30:26;;;;;;;;;;;;;;;;;;5084278;28;19924;-76
2022/09/26 15:32:53;;;;;;;;;;;;;;;;;;5082201;28;19936;-76
2022/09/26 15:35:20;;;;;;;;;;;;;;;;;;5082012;28;19932;-76
2022/09/26 15:37:47;;;;;;;;;;;;;;;;;;5082180;28;19969;-76
2022/09/26 15:40:14;;;;;;;;;;;;;;;;;;5079110;28;19990;-76
2022/09/26 15:43:00;;;;;;;;;;;;;;;;;;5083947;28;19938;-78
2022/09/26 15:45:28;;;;;;;;;;;;;;;;;;5076779;28;19929;-78
2022/09/26 15:47:55;;;;;;;;;;;;;;;;;;5083335;28;19939;-78
2022/09/26 15:50:22;;;;;;;;;;;;;;;;;;5083478;28;19928;-78
2022/09/26 15:52:49;;;;;;;;;;;;;;;;;;5082571;28;19951;-78
2022/09/26 15:55:17;;;;;;;;;;;;;;;;;;5082095;28;20298;-79
2022/09/26 15:57:44;;;;;;;;;;;;;;;;;;5082153;28;20420;-77
2022/09/26 16:00:11;;;;;;;;;;;;;;;;;;5078630;28;19947;-76
2022/09/26 16:02:38;;;;;;;;;;;;;;;;;;5074894;28;19939;-79
2022/09/26 16:05:05;;;;;;;;;;;;;;;;;;5087998;28;19932;-78
2022/09/26 16:07:32;;;;;;;;;;;;;;;;;;5080471;28;19932;-78
2022/09/26 16:09:59;;;;;;;;;;;;;;;;;;5089808;28;19928;-80
2022/09/26 16:12:28;;;;;;;;;;;;;;;;;;5093030;28;19940;-79
2022/09/26 16:14:55;;;;;;;;;;;;;;;;;;5086568;28;20378;-80
2022/09/26 16:17:22;;;;;;;;;;;;;;;;;;5076536;28;19936;-78
2022/09/26 16:19:49;;;;;;;;;;;;;;;;;;5082107;28;19932;-78
2022/09/26 16:22:16;;;;;;;;;;;;;;;;;;5080666;28;19924;-80
2022/09/26 16:24:43;;;;;;;;;;;;;;;;;;5086296;28;20343;-78
2022/09/26 16:27:10;;;;;;;;;;;;;;;;;;5079933;28;19937;-79
2022/09/26 16:29:37;;;;;;;;;;;;;;;;;;5083250;28;20278;-78
2022/09/26 16:32:04;;;;;;;;;;;;;;;;;;5074263;28;19991;-79
2022/09/26 16:34:32;;;;;;;;;;;;;;;;;;5077820;28;20355;-78
2022/09/26 16:36:59;;;;;;;;;;;;;;;;;;5076150;28;19994;-74
2022/09/26 16:39:26;;;;;;;;;;;;;;;;;;5078822;28;19934;-82
2022/09/26 16:41:53;;;;;;;;;;;;;;;;;;5076445;28;19932;-75
2022/09/26 16:44:20;;;;;;;;;;;;;;;;;;5083116;28;19931;-76
2022/09/26 16:46:47;;;;;;;;;;;;;;;;;;5080734;28;19943;-69
2022/09/26 16:49:14;;;;;;;;;;;;;;;;;;5085633;28;19935;-72
2022/09/26 16:51:42;;;;;;;;;;;;;;;;;;5079532;28;19928;-72
2022/09/26 16:54:10;;;;;;;;;;;;;;;;;;5082603;28;19928;-71
2022/09/26 16:56:37;;;;;;;;;;;;;;;;;;5082439;28;19984;-70
2022/09/26 16:59:04;;;;;;;;;;;;;;;;;;5085150;28;19928;-72